sensor_id;sensor_type;location;lat;lon;timestamp;pressure;altitude;pressure_sealevel;temperature;humidity
77192;BME280;66172;48.526;8.078;2023-10-31T00:02:01;98228.81;;;12.06;98.31
77192;BME280;66172;48.526;8.078;2023-10-31T00:04:27;98220.63;;;12.02;97.30
77192;BME280;66172;48.526;8.078;2023-10-31T00:06:53;98225.31;;;12.05;98.72
77192;BME280;66172;48.526;8.078;2023-10-31T00:09:18;98231.50;;;11.98;96.46
77192;BME280;66172;48.526;8.078;2023-10-31T00:11:44;98229.84;;;11.90;96.89
77192;BME280;66172;48.526;8.078;2023-10-31T00:14:10;98239.97;;;11.90;97.50
77192;BME280;66172;48.526;8.078;2023-10-31T00:16:36;98239.91;;;11.83;97.09
77192;BME280;66172;48.526;8.078;2023-10-31T00:19:02;98239.88;;;11.79;97.51
77192;BME280;66172;48.526;8.078;2023-10-31T00:21:28;98244.56;;;11.82;97.51
77192;BME280;66172;48.526;8.078;2023-10-31T00:23:54;98237.16;;;11.79;96.76
77192;BME280;66172;48.526;8.078;2023-10-31T00:26:20;98234.13;;;11.88;96.38
77192;BME280;66172;48.526;8.078;2023-10-31T00:28:46;98233.44;;;11.98;96.50
77192;BME280;66172;48.526;8.078;2023-10-31T00:31:11;98225.22;;;11.94;94.16
77192;BME280;66172;48.526;8.078;2023-10-31T00:33:37;98232.97;;;11.89;92.97
77192;BME280;66172;48.526;8.078;2023-10-31T00:36:04;98231.44;;;11.91;94.33
77192;BME280;66172;48.526;8.078;2023-10-31T00:38:29;98218.09;;;11.79;91.61
77192;BME280;66172;48.526;8.078;2023-10-31T00:40:55;98212.69;;;11.86;92.91
77192;BME280;66172;48.526;8.078;2023-10-31T00:43:22;98218.56;;;11.88;94.19
77192;BME280;66172;48.526;8.078;2023-10-31T00:45:47;98213.97;;;11.96;89.68
77192;BME280;66172;48.526;8.078;2023-10-31T00:48:13;98225.59;;;11.93;90.51
77192;BME280;66172;48.526;8.078;2023-10-31T00:50:39;98224.09;;;11.99;92.64
77192;BME280;66172;48.526;8.078;2023-10-31T00:53:07;98231.91;;;12.04;92.81
77192;BME280;66172;48.526;8.078;2023-10-31T00:55:32;98230.31;;;11.96;93.60
77192;BME280;66172;48.526;8.078;2023-10-31T00:57:58;98231.03;;;11.93;94.83
77192;BME280;66172;48.526;8.078;2023-10-31T01:00:24;98220.06;;;11.82;94.12
77192;BME280;66172;48.526;8.078;2023-10-31T01:02:50;98234.44;;;11.79;94.15
77192;BME280;66172;48.526;8.078;2023-10-31T01:05:16;98237.94;;;11.80;94.49
77192;BME280;66172;48.526;8.078;2023-10-31T01:07:42;98225.53;;;11.86;95.13
77192;BME280;66172;48.526;8.078;2023-10-31T01:10:08;98227.50;;;11.85;95.58
77192;BME280;66172;48.526;8.078;2023-10-31T01:12:34;98241.41;;;11.77;92.96
77192;BME280;66172;48.526;8.078;2023-10-31T01:15:00;98242.09;;;11.70;92.87
77192;BME280;66172;48.526;8.078;2023-10-31T01:17:26;98251.66;;;11.90;93.08
77192;BME280;66172;48.526;8.078;2023-10-31T01:19:51;98251.56;;;11.80;93.31
77192;BME280;66172;48.526;8.078;2023-10-31T01:22:17;98266.75;;;11.81;92.82
77192;BME280;66172;48.526;8.078;2023-10-31T01:24:43;98262.31;;;11.69;91.49
77192;BME280;66172;48.526;8.078;2023-10-31T01:27:09;98259.31;;;11.74;92.51
77192;BME280;66172;48.526;8.078;2023-10-31T01:29:35;98268.91;;;11.68;91.70
77192;BME280;66172;48.526;8.078;2023-10-31T01:32:01;98254.53;;;11.68;93.21
77192;BME280;66172;48.526;8.078;2023-10-31T01:34:27;98259.66;;;11.73;91.87
77192;BME280;66172;48.526;8.078;2023-10-31T01:36:53;98260.09;;;11.75;89.40
77192;BME280;66172;48.526;8.078;2023-10-31T01:39:19;98259.38;;;11.81;90.51
77192;BME280;66172;48.526;8.078;2023-10-31T01:41:45;98264.31;;;11.72;90.62
77192;BME280;66172;48.526;8.078;2023-10-31T01:44:10;98279.63;;;11.84;90.50
77192;BME280;66172;48.526;8.078;2023-10-31T01:46:36;98278.38;;;11.74;90.10
77192;BME280;66172;48.526;8.078;2023-10-31T01:49:03;98274.28;;;11.61;90.53
77192;BME280;66172;48.526;8.078;2023-10-31T01:51:29;98269.59;;;11.58;91.45
77192;BME280;66172;48.526;8.078;2023-10-31T01:53:55;98275.44;;;11.57;91.48
77192;BME280;66172;48.526;8.078;2023-10-31T01:56:22;98276.97;;;11.58;90.65
77192;BME280;66172;48.526;8.078;2023-10-31T01:58:49;98276.19;;;11.53;91.34
77192;BME280;66172;48.526;8.078;2023-10-31T02:01:15;98287.03;;;11.50;90.25
77192;BME280;66172;48.526;8.078;2023-10-31T02:03:41;98283.63;;;11.60;89.89
77192;BME280;66172;48.526;8.078;2023-10-31T02:06:07;98273.84;;;11.56;91.91
77192;BME280;66172;48.526;8.078;2023-10-31T02:08:33;98281.19;;;11.51;89.81
77192;BME280;66172;48.526;8.078;2023-10-31T02:10:59;98271.88;;;11.52;89.41
77192;BME280;66172;48.526;8.078;2023-10-31T02:13:25;98278.91;;;11.53;90.17
77192;BME280;66172;48.526;8.078;2023-10-31T02:15:51;98282.38;;;11.54;88.79
77192;BME280;66172;48.526;8.078;2023-10-31T02:18:17;98289.09;;;11.60;89.37
77192;BME280;66172;48.526;8.078;2023-10-31T02:20:43;98300.28;;;11.55;86.64
77192;BME280;66172;48.526;8.078;2023-10-31T02:23:10;98297.13;;;11.49;86.25
77192;BME280;66172;48.526;8.078;2023-10-31T02:25:35;98299.03;;;11.45;85.68
77192;BME280;66172;48.526;8.078;2023-10-31T02:28:01;98304.94;;;11.54;84.99
77192;BME280;66172;48.526;8.078;2023-10-31T02:30:27;98311.31;;;11.66;83.27
77192;BME280;66172;48.526;8.078;2023-10-31T02:32:53;98311.03;;;11.74;82.81
77192;BME280;66172;48.526;8.078;2023-10-31T02:35:20;98318.28;;;11.63;83.37
77192;BME280;66172;48.526;8.078;2023-10-31T02:37:46;98327.56;;;11.59;83.12
77192;BME280;66172;48.526;8.078;2023-10-31T02:40:12;98328.78;;;11.65;82.73
77192;BME280;66172;48.526;8.078;2023-10-31T02:42:38;98339.25;;;11.59;82.89
77192;BME280;66172;48.526;8.078;2023-10-31T02:45:05;98337.44;;;11.40;84.02
77192;BME280;66172;48.526;8.078;2023-10-31T02:47:31;98336.00;;;11.46;83.98
77192;BME280;66172;48.526;8.078;2023-10-31T02:49:57;98355.34;;;11.41;84.18
77192;BME280;66172;48.526;8.078;2023-10-31T02:52:23;98355.00;;;11.43;83.41
77192;BME280;66172;48.526;8.078;2023-10-31T02:54:49;98357.47;;;11.55;83.40
77192;BME280;66172;48.526;8.078;2023-10-31T02:57:15;98352.94;;;11.66;82.36
77192;BME280;66172;48.526;8.078;2023-10-31T02:59:42;98357.06;;;11.53;84.55
77192;BME280;66172;48.526;8.078;2023-10-31T03:02:08;98351.03;;;11.37;83.93
77192;BME280;66172;48.526;8.078;2023-10-31T03:04:34;98352.97;;;11.36;85.52
77192;BME280;66172;48.526;8.078;2023-10-31T03:06:59;98353.00;;;11.40;83.89
77192;BME280;66172;48.526;8.078;2023-10-31T03:09:25;98365.09;;;11.42;83.50
77192;BME280;66172;48.526;8.078;2023-10-31T03:11:52;98362.88;;;11.51;82.38
77192;BME280;66172;48.526;8.078;2023-10-31T03:14:18;98363.31;;;11.53;83.68
77192;BME280;66172;48.526;8.078;2023-10-31T03:16:44;98366.66;;;11.43;82.12
77192;BME280;66172;48.526;8.078;2023-10-31T03:19:10;98367.03;;;11.42;81.63
77192;BME280;66172;48.526;8.078;2023-10-31T03:21:36;98373.34;;;11.49;82.28
77192;BME280;66172;48.526;8.078;2023-10-31T03:24:02;98375.19;;;11.42;81.34
77192;BME280;66172;48.526;8.078;2023-10-31T03:26:28;98387.31;;;11.48;82.26
77192;BME280;66172;48.526;8.078;2023-10-31T03:28:54;98390.09;;;11.51;81.92
77192;BME280;66172;48.526;8.078;2023-10-31T03:31:24;98398.91;;;11.41;81.43
77192;BME280;66172;48.526;8.078;2023-10-31T03:33:50;98394.34;;;11.49;82.12
77192;BME280;66172;48.526;8.078;2023-10-31T03:36:17;98396.38;;;11.56;81.05
77192;BME280;66172;48.526;8.078;2023-10-31T03:38:43;98395.97;;;11.53;81.09
77192;BME280;66172;48.526;8.078;2023-10-31T03:41:09;98399.38;;;11.47;80.24
77192;BME280;66172;48.526;8.078;2023-10-31T03:43:35;98409.50;;;11.46;80.28
77192;BME280;66172;48.526;8.078;2023-10-31T03:46:01;98411.34;;;11.39;80.12
77192;BME280;66172;48.526;8.078;2023-10-31T03:48:27;98407.81;;;11.38;80.80
77192;BME280;66172;48.526;8.078;2023-10-31T03:50:53;98408.09;;;11.30;80.10
77192;BME280;66172;48.526;8.078;2023-10-31T03:53:19;98419.00;;;11.33;80.25
77192;BME280;66172;48.526;8.078;2023-10-31T03:55:45;98416.59;;;11.25;79.63
77192;BME280;66172;48.526;8.078;2023-10-31T03:58:11;98414.75;;;11.32;80.78
77192;BME280;66172;48.526;8.078;2023-10-31T04:00:38;98414.75;;;11.32;81.20
77192;BME280;66172;48.526;8.078;2023-10-31T04:03:04;98406.16;;;11.30;80.68
77192;BME280;66172;48.526;8.078;2023-10-31T04:05:30;98414.34;;;11.34;81.80
77192;BME280;66172;48.526;8.078;2023-10-31T04:07:56;98420.50;;;11.27;81.35
77192;BME280;66172;48.526;8.078;2023-10-31T04:10:22;98422.38;;;11.23;79.52
77192;BME280;66172;48.526;8.078;2023-10-31T04:12:48;98422.16;;;11.35;80.42
77192;BME280;66172;48.526;8.078;2023-10-31T04:15:14;98416.69;;;11.32;79.69
77192;BME280;66172;48.526;8.078;2023-10-31T04:17:40;98438.41;;;11.28;78.77
77192;BME280;66172;48.526;8.078;2023-10-31T04:20:06;98425.03;;;11.46;78.86
77192;BME280;66172;48.526;8.078;2023-10-31T04:22:32;98434.84;;;11.54;78.26
77192;BME280;66172;48.526;8.078;2023-10-31T04:24:58;98430.03;;;11.44;79.10
77192;BME280;66172;48.526;8.078;2023-10-31T04:27:24;98440.88;;;11.40;81.61
77192;BME280;66172;48.526;8.078;2023-10-31T04:29:50;98444.03;;;11.16;82.08
77192;BME280;66172;48.526;8.078;2023-10-31T04:32:16;98434.69;;;11.14;83.14
77192;BME280;66172;48.526;8.078;2023-10-31T04:34:42;98446.34;;;11.14;84.02
77192;BME280;66172;48.526;8.078;2023-10-31T04:37:08;98444.03;;;11.16;85.35
77192;BME280;66172;48.526;8.078;2023-10-31T04:39:33;98449.03;;;11.11;86.59
77192;BME280;66172;48.526;8.078;2023-10-31T04:41:59;98445.97;;;11.16;86.22
77192;BME280;66172;48.526;8.078;2023-10-31T04:44:25;98435.50;;;10.91;86.14
77192;BME280;66172;48.526;8.078;2023-10-31T04:46:51;98432.09;;;10.98;87.46
77192;BME280;66172;48.526;8.078;2023-10-31T04:49:17;98430.34;;;11.09;88.07
77192;BME280;66172;48.526;8.078;2023-10-31T04:51:43;98427.88;;;11.00;89.21
77192;BME280;66172;48.526;8.078;2023-10-31T04:54:09;98429.53;;;11.09;90.08
77192;BME280;66172;48.526;8.078;2023-10-31T04:56:36;98423.88;;;10.94;91.03
77192;BME280;66172;48.526;8.078;2023-10-31T04:59:02;98431.66;;;10.92;91.97
77192;BME280;66172;48.526;8.078;2023-10-31T05:01:28;98436.97;;;10.85;92.48
77192;BME280;66172;48.526;8.078;2023-10-31T05:03:54;98439.44;;;10.94;91.04
77192;BME280;66172;48.526;8.078;2023-10-31T05:06:20;98439.28;;;10.83;89.48
77192;BME280;66172;48.526;8.078;2023-10-31T05:08:47;98442.00;;;10.61;92.20
77192;BME280;66172;48.526;8.078;2023-10-31T05:11:13;98453.78;;;10.68;90.12
77192;BME280;66172;48.526;8.078;2023-10-31T05:13:39;98464.41;;;10.77;89.87
77192;BME280;66172;48.526;8.078;2023-10-31T05:16:05;98463.94;;;10.94;85.23
77192;BME280;66172;48.526;8.078;2023-10-31T05:18:31;98482.53;;;10.92;85.22
77192;BME280;66172;48.526;8.078;2023-10-31T05:20:57;98472.09;;;10.94;86.10
77192;BME280;66172;48.526;8.078;2023-10-31T05:23:23;98484.34;;;10.84;84.35
77192;BME280;66172;48.526;8.078;2023-10-31T05:25:49;98479.97;;;10.76;86.31
77192;BME280;66172;48.526;8.078;2023-10-31T05:28:15;98482.34;;;10.81;87.15
77192;BME280;66172;48.526;8.078;2023-10-31T05:30:41;98491.19;;;10.75;87.30
77192;BME280;66172;48.526;8.078;2023-10-31T05:33:07;98478.78;;;10.77;88.78
77192;BME280;66172;48.526;8.078;2023-10-31T05:35:33;98485.00;;;10.78;89.89
77192;BME280;66172;48.526;8.078;2023-10-31T05:37:59;98492.03;;;10.79;90.17
77192;BME280;66172;48.526;8.078;2023-10-31T05:40:25;98494.69;;;10.75;92.24
77192;BME280;66172;48.526;8.078;2023-10-31T05:42:53;98502.41;;;10.73;91.07
77192;BME280;66172;48.526;8.078;2023-10-31T05:45:18;98503.94;;;10.71;90.83
77192;BME280;66172;48.526;8.078;2023-10-31T05:47:44;98503.19;;;10.74;93.09
77192;BME280;66172;48.526;8.078;2023-10-31T05:50:10;98501.78;;;10.80;91.82
77192;BME280;66172;48.526;8.078;2023-10-31T05:52:36;98515.50;;;10.87;92.19
77192;BME280;66172;48.526;8.078;2023-10-31T05:55:02;98522.84;;;10.86;93.24
77192;BME280;66172;48.526;8.078;2023-10-31T05:57:28;98521.81;;;10.72;92.76
77192;BME280;66172;48.526;8.078;2023-10-31T05:59:54;98512.97;;;10.56;90.17
77192;BME280;66172;48.526;8.078;2023-10-31T06:02:20;98505.66;;;10.60;89.88
77192;BME280;66172;48.526;8.078;2023-10-31T06:04:46;98509.69;;;10.66;90.27
77192;BME280;66172;48.526;8.078;2023-10-31T06:07:12;98517.53;;;10.71;91.21
77192;BME280;66172;48.526;8.078;2023-10-31T06:09:38;98516.00;;;10.73;91.82
77192;BME280;66172;48.526;8.078;2023-10-31T06:12:04;98509.00;;;10.72;93.11
77192;BME280;66172;48.526;8.078;2023-10-31T06:14:31;98510.94;;;10.72;92.72
77192;BME280;66172;48.526;8.078;2023-10-31T06:16:57;98518.25;;;10.68;92.98
77192;BME280;66172;48.526;8.078;2023-10-31T06:19:25;98512.75;;;10.64;92.29
77192;BME280;66172;48.526;8.078;2023-10-31T06:21:50;98515.31;;;10.76;92.49
77192;BME280;66172;48.526;8.078;2023-10-31T06:24:16;98514.25;;;10.62;93.26
77192;BME280;66172;48.526;8.078;2023-10-31T06:26:42;98508.19;;;10.49;93.56
77192;BME280;66172;48.526;8.078;2023-10-31T06:29:08;98502.47;;;10.54;94.22
77192;BME280;66172;48.526;8.078;2023-10-31T06:31:34;98509.44;;;10.51;94.90
77192;BME280;66172;48.526;8.078;2023-10-31T06:34:00;98506.91;;;10.43;94.75
77192;BME280;66172;48.526;8.078;2023-10-31T06:36:26;98505.94;;;10.32;95.81
77192;BME280;66172;48.526;8.078;2023-10-31T06:38:52;98516.72;;;10.47;95.20
77192;BME280;66172;48.526;8.078;2023-10-31T06:41:17;98525.72;;;10.51;94.74
77192;BME280;66172;48.526;8.078;2023-10-31T06:43:43;98531.44;;;10.46;94.44
77192;BME280;66172;48.526;8.078;2023-10-31T06:46:09;98524.16;;;10.31;95.15
77192;BME280;66172;48.526;8.078;2023-10-31T06:48:35;98523.50;;;10.57;93.78
77192;BME280;66172;48.526;8.078;2023-10-31T06:51:01;98527.09;;;10.42;94.05
77192;BME280;66172;48.526;8.078;2023-10-31T06:53:27;98524.63;;;10.56;93.03
77192;BME280;66172;48.526;8.078;2023-10-31T06:55:53;98529.72;;;10.58;93.38
77192;BME280;66172;48.526;8.078;2023-10-31T06:58:19;98533.63;;;10.79;92.09
77192;BME280;66172;48.526;8.078;2023-10-31T07:00:44;98534.97;;;10.70;92.07
77192;BME280;66172;48.526;8.078;2023-10-31T07:03:10;98526.81;;;10.28;95.68
77192;BME280;66172;48.526;8.078;2023-10-31T07:05:41;98534.75;;;10.36;95.16
77192;BME280;66172;48.526;8.078;2023-10-31T07:08:07;98536.75;;;10.39;95.16
77192;BME280;66172;48.526;8.078;2023-10-31T07:10:33;98544.09;;;10.58;94.36
77192;BME280;66172;48.526;8.078;2023-10-31T07:12:59;98539.31;;;10.32;96.39
77192;BME280;66172;48.526;8.078;2023-10-31T07:15:25;98546.91;;;10.42;95.73
77192;BME280;66172;48.526;8.078;2023-10-31T07:17:51;98556.63;;;10.43;96.12
77192;BME280;66172;48.526;8.078;2023-10-31T07:20:17;98555.97;;;10.50;96.62
77192;BME280;66172;48.526;8.078;2023-10-31T07:22:43;98552.91;;;10.51;96.17
77192;BME280;66172;48.526;8.078;2023-10-31T07:25:09;98558.47;;;10.59;95.09
77192;BME280;66172;48.526;8.078;2023-10-31T07:27:35;98565.72;;;10.51;95.58
77192;BME280;66172;48.526;8.078;2023-10-31T07:30:04;98561.56;;;10.57;95.16
77192;BME280;66172;48.526;8.078;2023-10-31T07:32:31;98563.84;;;10.55;95.60
77192;BME280;66172;48.526;8.078;2023-10-31T07:34:58;98566.91;;;10.53;95.81
77192;BME280;66172;48.526;8.078;2023-10-31T07:37:24;98566.63;;;10.59;95.56
77192;BME280;66172;48.526;8.078;2023-10-31T07:39:49;98573.56;;;10.56;96.26
77192;BME280;66172;48.526;8.078;2023-10-31T07:42:16;98575.06;;;10.73;94.64
77192;BME280;66172;48.526;8.078;2023-10-31T07:44:42;98572.84;;;10.59;94.59
77192;BME280;66172;48.526;8.078;2023-10-31T07:47:08;98573.56;;;10.56;95.64
77192;BME280;66172;48.526;8.078;2023-10-31T07:49:34;98581.56;;;10.68;95.98
77192;BME280;66172;48.526;8.078;2023-10-31T07:52:00;98585.63;;;10.78;96.30
77192;BME280;66172;48.526;8.078;2023-10-31T07:54:26;98583.41;;;10.83;96.25
77192;BME280;66172;48.526;8.078;2023-10-31T07:56:52;98579.38;;;10.96;94.56
77192;BME280;66172;48.526;8.078;2023-10-31T07:59:18;98584.44;;;10.98;94.44
77192;BME280;66172;48.526;8.078;2023-10-31T08:01:44;98592.59;;;10.98;94.96
77192;BME280;66172;48.526;8.078;2023-10-31T08:04:10;98586.75;;;10.96;95.06
77192;BME280;66172;48.526;8.078;2023-10-31T08:06:35;98594.38;;;11.10;93.61
77192;BME280;66172;48.526;8.078;2023-10-31T08:09:01;98596.41;;;11.16;93.16
77192;BME280;66172;48.526;8.078;2023-10-31T08:11:27;98608.84;;;10.94;93.33
77192;BME280;66172;48.526;8.078;2023-10-31T08:13:53;98598.94;;;11.06;93.58
77192;BME280;66172;48.526;8.078;2023-10-31T08:16:19;98612.28;;;11.11;93.33
77192;BME280;66172;48.526;8.078;2023-10-31T08:18:46;98606.94;;;11.18;93.67
77192;BME280;66172;48.526;8.078;2023-10-31T08:21:12;98606.88;;;11.14;93.89
77192;BME280;66172;48.526;8.078;2023-10-31T08:23:38;98617.34;;;11.12;93.87
77192;BME280;66172;48.526;8.078;2023-10-31T08:26:04;98624.06;;;11.18;93.69
77192;BME280;66172;48.526;8.078;2023-10-31T08:28:30;98629.66;;;11.06;93.72
77192;BME280;66172;48.526;8.078;2023-10-31T08:30:57;98634.63;;;11.00;94.45
77192;BME280;66172;48.526;8.078;2023-10-31T08:33:23;98629.66;;;10.83;94.56
77192;BME280;66172;48.526;8.078;2023-10-31T08:35:49;98627.28;;;10.82;96.56
77192;BME280;66172;48.526;8.078;2023-10-31T08:38:17;98625.75;;;11.03;96.97
77192;BME280;66172;48.526;8.078;2023-10-31T08:40:43;98627.00;;;11.10;95.01
77192;BME280;66172;48.526;8.078;2023-10-31T08:43:09;98622.13;;;11.19;95.06
77192;BME280;66172;48.526;8.078;2023-10-31T08:45:35;98618.19;;;11.16;92.34
77192;BME280;66172;48.526;8.078;2023-10-31T08:48:01;98618.56;;;11.37;92.60
77192;BME280;66172;48.526;8.078;2023-10-31T08:50:26;98621.78;;;11.43;92.34
77192;BME280;66172;48.526;8.078;2023-10-31T08:52:53;98628.72;;;11.40;90.67
77192;BME280;66172;48.526;8.078;2023-10-31T08:55:19;98625.50;;;11.35;89.79
77192;BME280;66172;48.526;8.078;2023-10-31T08:57:45;98623.31;;;11.44;90.12
77192;BME280;66172;48.526;8.078;2023-10-31T09:00:11;98631.66;;;11.54;89.97
77192;BME280;66172;48.526;8.078;2023-10-31T09:02:38;98638.47;;;11.64;89.14
77192;BME280;66172;48.526;8.078;2023-10-31T09:05:05;98637.44;;;11.72;88.08
77192;BME280;66172;48.526;8.078;2023-10-31T09:07:31;98641.38;;;11.75;89.02
77192;BME280;66172;48.526;8.078;2023-10-31T09:09:58;98649.50;;;11.71;87.54
77192;BME280;66172;48.526;8.078;2023-10-31T09:12:23;98645.44;;;11.65;86.55
77192;BME280;66172;48.526;8.078;2023-10-31T09:14:49;98639.66;;;11.67;87.53
77192;BME280;66172;48.526;8.078;2023-10-31T09:17:15;98651.53;;;11.78;88.40
77192;BME280;66172;48.526;8.078;2023-10-31T09:19:41;98644.66;;;11.87;86.70
77192;BME280;66172;48.526;8.078;2023-10-31T09:22:07;98648.44;;;11.79;85.91
77192;BME280;66172;48.526;8.078;2023-10-31T09:24:33;98647.28;;;11.80;86.43
77192;BME280;66172;48.526;8.078;2023-10-31T09:26:59;98650.75;;;11.77;86.76
77192;BME280;66172;48.526;8.078;2023-10-31T09:29:25;98641.59;;;11.89;87.05
77192;BME280;66172;48.526;8.078;2023-10-31T09:31:51;98640.91;;;11.95;87.43
77192;BME280;66172;48.526;8.078;2023-10-31T09:34:17;98637.97;;;12.08;86.66
77192;BME280;66172;48.526;8.078;2023-10-31T09:36:43;98645.34;;;12.07;85.42
77192;BME280;66172;48.526;8.078;2023-10-31T09:39:09;98639.94;;;12.11;84.59
77192;BME280;66172;48.526;8.078;2023-10-31T09:41:35;98640.97;;;12.29;84.36
77192;BME280;66172;48.526;8.078;2023-10-31T09:44:02;98645.19;;;12.23;83.84
77192;BME280;66172;48.526;8.078;2023-10-31T09:46:28;98636.16;;;12.19;85.55
77192;BME280;66172;48.526;8.078;2023-10-31T09:48:55;98635.06;;;12.23;85.63
77192;BME280;66172;48.526;8.078;2023-10-31T09:51:21;98642.88;;;12.25;86.22
77192;BME280;66172;48.526;8.078;2023-10-31T09:53:47;98648.09;;;12.37;85.46
77192;BME280;66172;48.526;8.078;2023-10-31T09:56:14;98647.16;;;12.26;83.20
77192;BME280;66172;48.526;8.078;2023-10-31T09:58:40;98654.78;;;12.43;82.24
77192;BME280;66172;48.526;8.078;2023-10-31T10:01:07;98648.28;;;12.51;81.42
77192;BME280;66172;48.526;8.078;2023-10-31T10:03:33;98649.44;;;12.50;81.63
77192;BME280;66172;48.526;8.078;2023-10-31T10:06:02;98646.22;;;12.15;83.12
77192;BME280;66172;48.526;8.078;2023-10-31T10:08:28;98648.59;;;12.16;84.02
77192;BME280;66172;48.526;8.078;2023-10-31T10:10:54;98637.59;;;12.39;84.00
77192;BME280;66172;48.526;8.078;2023-10-31T10:13:21;98635.72;;;12.43;82.94
77192;BME280;66172;48.526;8.078;2023-10-31T10:15:51;98639.22;;;12.43;82.70
77192;BME280;66172;48.526;8.078;2023-10-31T10:18:34;98639.31;;;12.50;83.60
77192;BME280;66172;48.526;8.078;2023-10-31T10:21:02;98645.19;;;12.52;82.45
77192;BME280;66172;48.526;8.078;2023-10-31T10:23:29;98639.53;;;12.35;82.70
77192;BME280;66172;48.526;8.078;2023-10-31T10:25:56;98654.75;;;12.39;83.50
77192;BME280;66172;48.526;8.078;2023-10-31T10:28:23;98650.13;;;12.43;82.65
77192;BME280;66172;48.526;8.078;2023-10-31T10:30:51;98653.50;;;12.33;83.48
77192;BME280;66172;48.526;8.078;2023-10-31T10:33:17;98652.91;;;12.47;83.28
77192;BME280;66172;48.526;8.078;2023-10-31T10:35:44;98649.53;;;12.27;82.82
77192;BME280;66172;48.526;8.078;2023-10-31T10:38:11;98652.63;;;12.26;83.47
77192;BME280;66172;48.526;8.078;2023-10-31T10:40:43;98646.97;;;12.38;83.78
77192;BME280;66172;48.526;8.078;2023-10-31T10:43:25;98648.91;;;12.37;83.50
77192;BME280;66172;48.526;8.078;2023-10-31T10:45:56;98654.16;;;12.23;84.25
77192;BME280;66172;48.526;8.078;2023-10-31T10:48:23;98652.53;;;12.19;84.44
77192;BME280;66172;48.526;8.078;2023-10-31T10:51:10;98658.59;;;12.35;85.00
77192;BME280;66172;48.526;8.078;2023-10-31T10:53:49;98654.34;;;12.37;84.66
77192;BME280;66172;48.526;8.078;2023-10-31T10:56:19;98660.50;;;12.31;85.94
77192;BME280;66172;48.526;8.078;2023-10-31T10:58:52;98653.06;;;12.28;86.24
77192;BME280;66172;48.526;8.078;2023-10-31T11:01:21;98656.03;;;12.19;85.88
77192;BME280;66172;48.526;8.078;2023-10-31T11:03:48;98655.72;;;12.24;87.70
77192;BME280;66172;48.526;8.078;2023-10-31T11:06:15;98653.78;;;12.25;87.44
77192;BME280;66172;48.526;8.078;2023-10-31T11:08:41;98653.88;;;12.32;88.17
77192;BME280;66172;48.526;8.078;2023-10-31T11:11:08;98660.09;;;12.32;87.95
77192;BME280;66172;48.526;8.078;2023-10-31T11:13:34;98663.53;;;12.26;88.84
77192;BME280;66172;48.526;8.078;2023-10-31T11:16:06;98660.94;;;12.36;89.46
77192;BME280;66172;48.526;8.078;2023-10-31T11:18:35;98656.19;;;12.30;87.38
77192;BME280;66172;48.526;8.078;2023-10-31T11:21:01;98658.31;;;12.43;87.43
77192;BME280;66172;48.526;8.078;2023-10-31T11:23:27;98659.09;;;12.44;88.48
77192;BME280;66172;48.526;8.078;2023-10-31T11:25:55;98655.78;;;12.58;88.39
77192;BME280;66172;48.526;8.078;2023-10-31T11:28:21;98661.13;;;12.50;87.24
77192;BME280;66172;48.526;8.078;2023-10-31T11:30:50;98666.59;;;12.50;88.45
77192;BME280;66172;48.526;8.078;2023-10-31T11:33:20;98664.25;;;12.52;87.95
77192;BME280;66172;48.526;8.078;2023-10-31T11:35:50;98662.31;;;12.53;88.34
77192;BME280;66172;48.526;8.078;2023-10-31T11:38:16;98664.00;;;12.61;88.97
77192;BME280;66172;48.526;8.078;2023-10-31T11:43:14;98668.00;;;13.04;84.39
77192;BME280;66172;48.526;8.078;2023-10-31T11:45:41;98664.22;;;12.79;85.26
77192;BME280;66172;48.526;8.078;2023-10-31T11:48:08;98661.09;;;12.77;84.06
77192;BME280;66172;48.526;8.078;2023-10-31T11:50:36;98672.47;;;12.86;85.03
77192;BME280;66172;48.526;8.078;2023-10-31T11:53:10;98664.06;;;12.98;83.38
77192;BME280;66172;48.526;8.078;2023-10-31T11:55:41;98667.78;;;13.16;82.41
77192;BME280;66172;48.526;8.078;2023-10-31T11:58:21;98673.03;;;13.02;82.46
77192;BME280;66172;48.526;8.078;2023-10-31T12:00:49;98666.63;;;13.17;81.98
77192;BME280;66172;48.526;8.078;2023-10-31T12:03:17;98680.97;;;13.11;83.30
77192;BME280;66172;48.526;8.078;2023-10-31T12:05:58;98679.97;;;13.26;81.34
77192;BME280;66172;48.526;8.078;2023-10-31T12:08:29;98679.34;;;13.39;81.52
77192;BME280;66172;48.526;8.078;2023-10-31T12:13:36;98688.81;;;13.12;80.32
77192;BME280;66172;48.526;8.078;2023-10-31T12:16:02;98678.66;;;13.13;82.61
77192;BME280;66172;48.526;8.078;2023-10-31T12:18:28;98683.16;;;13.31;82.54
77192;BME280;66172;48.526;8.078;2023-10-31T12:20:55;98685.25;;;13.48;80.69
77192;BME280;66172;48.526;8.078;2023-10-31T12:23:21;98682.22;;;13.57;79.28
77192;BME280;66172;48.526;8.078;2023-10-31T12:25:53;98682.94;;;13.94;79.53
77192;BME280;66172;48.526;8.078;2023-10-31T12:28:21;98680.63;;;14.00;77.02
77192;BME280;66172;48.526;8.078;2023-10-31T12:30:49;98679.66;;;14.29;76.71
77192;BME280;66172;48.526;8.078;2023-10-31T12:33:16;98686.13;;;14.62;77.22
77192;BME280;66172;48.526;8.078;2023-10-31T12:35:43;98686.03;;;14.47;75.11
77192;BME280;66172;48.526;8.078;2023-10-31T12:38:10;98685.31;;;14.58;75.56
77192;BME280;66172;48.526;8.078;2023-10-31T12:40:37;98679.56;;;14.80;73.62
77192;BME280;66172;48.526;8.078;2023-10-31T12:43:03;98675.66;;;14.88;73.51
77192;BME280;66172;48.526;8.078;2023-10-31T12:45:29;98672.25;;;15.13;73.45
77192;BME280;66172;48.526;8.078;2023-10-31T12:48:08;98671.53;;;15.40;71.82
77192;BME280;66172;48.526;8.078;2023-10-31T12:50:36;98678.59;;;15.52;72.12
77192;BME280;66172;48.526;8.078;2023-10-31T12:53:03;98679.00;;;15.51;71.77
77192;BME280;66172;48.526;8.078;2023-10-31T12:55:31;98674.28;;;15.47;70.44
77192;BME280;66172;48.526;8.078;2023-10-31T12:58:02;98666.41;;;15.35;70.04
77192;BME280;66172;48.526;8.078;2023-10-31T13:00:32;98676.16;;;15.15;69.53
77192;BME280;66172;48.526;8.078;2023-10-31T13:03:08;98680.16;;;15.49;69.84